Time;durP1;ratioP1;P1;durP2;ratioP2;P2;SDS_P1;SDS_P2;PMS_P1;PMS_P2;Temp;Humidity;BMP_temperature;BMP_pressure;BME280_temperature;BME280_humidity;BME280_pressure;Samples;Min_cycle;Max_cycle;Signal;HPM_P1;HPM_P2
2022/11/08 00:02:33;;;;;;;;;;;;;;;6.05;98.54;96489.66;5061623;28;19959;-73
2022/11/08 00:15:59;;;;;;;;;;;;;;;5.93;98.34;96490.31;5068854;28;19970;-73
2022/11/08 00:18:25;;;;;;;;;;;;;;;5.90;98.42;96486.28;5064002;28;19960;-73
2022/11/08 00:20:50;;;;;;;;;;;;;;;5.89;98.48;96484.66;5063472;28;20025;-73
2022/11/08 00:23:16;;;;;;;;;;;;;;;5.88;98.56;96483.06;5076032;28;20059;-73
2022/11/08 00:25:42;;;;;;;;;;;;;;;5.86;98.33;96478.03;5066638;28;19962;-74
2022/11/08 00:28:08;;;;;;;;;;;;;;;5.85;98.33;96467.81;5066608;28;19965;-74
2022/11/08 00:30:34;;;;;;;;;;;;;;;5.82;98.27;96474.19;5070241;28;19953;-74
2022/11/08 00:33:00;;;;;;;;;;;;;;;5.82;98.22;96471.59;5066140;28;20444;-73
2022/11/08 00:35:26;;;;;;;;;;;;;;;5.81;98.71;96469.19;5062884;28;20005;-74
2022/11/08 00:37:51;;;;;;;;;;;;;;;5.81;98.76;96469.19;5068347;28;19998;-74
2022/11/08 00:40:17;;;;;;;;;;;;;;;5.80;98.45;96478.00;5068694;28;20132;-73
2022/11/08 00:42:43;;;;;;;;;;;;;;;5.79;98.59;96474.56;5064352;28;20465;-73
2022/11/08 00:45:09;;;;;;;;;;;;;;;5.75;98.60;96467.31;5065771;28;20380;-73
2022/11/08 00:47:35;;;;;;;;;;;;;;;5.75;98.48;96475.13;5069312;28;20062;-74
2022/11/08 00:50:01;;;;;;;;;;;;;;;5.72;98.62;96473.72;5059891;28;19967;-73
2022/11/08 00:52:27;;;;;;;;;;;;;;;5.71;98.68;96472.09;5067314;28;19992;-73
2022/11/08 00:54:52;;;;;;;;;;;;;;;5.70;98.69;96470.47;5067073;28;19955;-74
2022/11/08 00:57:18;;;;;;;;;;;;;;;5.68;98.71;96468.06;5064718;28;20021;-73
2022/11/08 00:59:44;;;;;;;;;;;;;;;5.67;98.82;96466.47;5060299;28;19955;-74
2022/11/08 01:02:10;;;;;;;;;;;;;;;5.66;98.97;96469.25;5030099;28;20482;-74
2022/11/08 01:04:36;;;;;;;;;;;;;;;5.63;98.74;96456.63;5064619;28;20383;-74
2022/11/08 01:07:02;;;;;;;;;;;;;;;5.61;98.85;96459.41;5071750;28;19968;-74
2022/11/08 01:09:28;;;;;;;;;;;;;;;5.59;98.87;96448.38;5061901;28;20040;-73
2022/11/08 01:11:53;;;;;;;;;;;;;;;5.58;99.00;96454.56;5063131;28;20020;-73
2022/11/08 01:14:19;;;;;;;;;;;;;;;5.58;99.00;96451.16;5064097;28;19958;-74
2022/11/08 01:16:45;;;;;;;;;;;;;;;5.55;98.85;96449.75;5070502;28;19977;-73
2022/11/08 01:19:11;;;;;;;;;;;;;;;5.56;99.06;96458.34;5059382;28;20017;-74
2022/11/08 01:21:37;;;;;;;;;;;;;;;5.54;99.20;96452.50;5063965;28;20410;-74
2022/11/08 01:24:03;;;;;;;;;;;;;;;5.54;99.18;96455.13;5065194;28;19977;-73
2022/11/08 01:26:29;;;;;;;;;;;;;;;5.52;99.43;96457.09;5065144;28;19964;-73
2022/11/08 01:28:56;;;;;;;;;;;;;;;5.50;98.87;96457.28;5064535;28;20311;-73
2022/11/08 01:31:22;;;;;;;;;;;;;;;5.46;98.87;96438.66;5068016;28;19951;-74
2022/11/08 01:33:48;;;;;;;;;;;;;;;5.44;98.66;96450.25;5062231;28;19952;-73
2022/11/08 01:36:15;;;;;;;;;;;;;;;5.41;98.66;96440.19;5060645;28;20402;-73
2022/11/08 01:38:41;;;;;;;;;;;;;;;5.39;98.78;96437.78;5033889;28;19954;-73
2022/11/08 01:41:10;;;;;;;;;;;;;;;5.37;99.05;96431.94;5065627;28;19951;-73
2022/11/08 01:43:36;;;;;;;;;;;;;;;5.35;99.09;96426.13;5063779;28;19954;-73
2022/11/08 01:46:11;;;;;;;;;;;;;;;5.35;99.14;96423.53;5069622;28;20067;-73
2022/11/08 01:48:42;;;;;;;;;;;;;;;5.34;99.50;96411.53;5061534;28;19960;-73
2022/11/08 01:51:10;;;;;;;;;;;;;;;5.34;99.69;96411.53;5060950;28;19956;-73
2022/11/08 01:53:36;;;;;;;;;;;;;;;5.35;99.92;96410.53;5066214;28;19961;-73
2022/11/08 01:56:02;;;;;;;;;;;;;;;5.35;100.00;96407.13;5069409;28;19968;-74
2022/11/08 01:58:31;;;;;;;;;;;;;;;5.35;100.00;96405.31;5059096;28;19950;-73
2022/11/08 02:00:57;;;;;;;;;;;;;;;5.36;100.00;96400.94;5062491;28;19950;-73
2022/11/08 02:03:23;;;;;;;;;;;;;;;5.34;99.91;96397.72;5030273;28;19962;-74
2022/11/08 02:05:49;;;;;;;;;;;;;;;5.33;99.68;96396.09;5058122;28;20370;-74
2022/11/08 02:08:24;;;;;;;;;;;;;;;5.31;99.19;96400.69;5063859;28;19975;-74
2022/11/08 02:10:51;;;;;;;;;;;;;;;5.27;98.91;96389.84;5067546;28;19952;-74
2022/11/08 02:13:19;;;;;;;;;;;;;;;5.24;98.93;96390.22;5064083;28;19964;-74
2022/11/08 02:15:45;;;;;;;;;;;;;;;5.19;98.78;96383.00;5045070;28;19948;-74
2022/11/08 02:18:12;;;;;;;;;;;;;;;5.16;98.70;96387.75;5059013;28;19964;-74
2022/11/08 02:20:41;;;;;;;;;;;;;;;5.13;98.90;96380.31;5065905;28;19949;-74
2022/11/08 02:23:23;;;;;;;;;;;;;;;5.09;98.77;96374.69;5064970;28;20325;-74
2022/11/08 02:25:48;;;;;;;;;;;;;;;5.07;98.76;96366.25;5064324;28;19977;-73
2022/11/08 02:28:15;;;;;;;;;;;;;;;5.05;99.03;96370.84;5069323;28;20336;-73
2022/11/08 02:30:41;;;;;;;;;;;;;;;5.05;99.54;96370.84;5058123;28;19954;-73
2022/11/08 02:33:17;;;;;;;;;;;;;;;5.05;99.64;96368.25;5058829;28;19966;-74
2022/11/08 02:35:45;;;;;;;;;;;;;;;5.05;100.00;96360.44;5044454;28;19950;-74
2022/11/08 02:38:11;;;;;;;;;;;;;;;5.03;99.83;96350.22;5045133;28;19957;-74
2022/11/08 02:40:44;;;;;;;;;;;;;;;5.03;99.74;96357.22;5068506;28;20415;-73
2022/11/08 02:43:10;;;;;;;;;;;;;;;5.04;100.00;96358.81;5061665;28;19956;-73
2022/11/08 02:45:36;;;;;;;;;;;;;;;5.04;100.00;96348.44;5062638;28;19975;-73
2022/11/08 02:48:02;;;;;;;;;;;;;;;5.02;99.87;96342.63;5058282;28;19961;-74
2022/11/08 02:50:27;;;;;;;;;;;;;;;5.00;99.61;96347.22;5064438;28;19966;-74
2022/11/08 02:52:53;;;;;;;;;;;;;;;4.96;99.29;96336.38;5035655;28;20042;-73
2022/11/08 02:55:19;;;;;;;;;;;;;;;4.94;99.05;96335.75;5068630;28;19960;-74
2022/11/08 02:57:45;;;;;;;;;;;;;;;4.92;98.99;96340.34;5062995;28;19951;-73
2022/11/08 03:00:11;;;;;;;;;;;;;;;4.90;98.78;96333.72;5062024;28;20002;-73
2022/11/08 03:02:37;;;;;;;;;;;;;;;4.87;98.78;96340.88;5060559;28;20440;-73
2022/11/08 03:05:03;;;;;;;;;;;;;;;4.86;98.87;96346.25;5068905;28;20099;-74
2022/11/08 03:07:29;;;;;;;;;;;;;;;4.83;98.91;96336.22;5045990;28;20380;-74
2022/11/08 03:09:55;;;;;;;;;;;;;;;4.81;99.04;96336.44;5060011;28;20001;-73
2022/11/08 03:12:21;;;;;;;;;;;;;;;4.78;98.87;96330.78;5064295;28;20009;-73
2022/11/08 03:14:47;;;;;;;;;;;;;;;4.76;98.92;96337.97;5063813;28;19971;-73
2022/11/08 03:17:12;;;;;;;;;;;;;;;4.74;98.91;96332.94;5065600;28;19960;-73
2022/11/08 03:19:38;;;;;;;;;;;;;;;4.71;99.02;96335.13;5062111;28;20011;-73
2022/11/08 03:22:04;;;;;;;;;;;;;;;4.69;98.85;96330.09;5061223;28;20004;-78
2022/11/08 03:24:30;;;;;;;;;;;;;;;4.68;99.00;96334.50;5066246;28;20012;-74
2022/11/08 03:26:56;;;;;;;;;;;;;;;4.67;98.83;96332.88;5065404;28;19988;-74
2022/11/08 03:29:22;;;;;;;;;;;;;;;4.68;98.66;96333.66;5054157;28;20320;-75
2022/11/08 03:31:47;;;;;;;;;;;;;;;4.66;98.61;96330.44;5069258;28;19955;-74
2022/11/08 03:34:13;;;;;;;;;;;;;;;4.65;98.80;96336.66;5067229;28;20060;-74
2022/11/08 03:36:39;;;;;;;;;;;;;;;4.63;98.74;96341.22;5058305;28;20365;-74
2022/11/08 03:39:05;;;;;;;;;;;;;;;4.62;99.08;96347.38;5059680;28;20376;-74
2022/11/08 03:41:31;;;;;;;;;;;;;;;4.62;99.41;96349.97;5061005;28;19961;-74
2022/11/08 03:43:57;;;;;;;;;;;;;;;4.60;99.45;96345.00;5068419;28;20367;-74
2022/11/08 03:46:23;;;;;;;;;;;;;;;4.60;99.79;96351.97;5051348;28;20040;-74
2022/11/08 03:48:48;;;;;;;;;;;;;;;4.58;99.54;96352.16;5062296;28;19998;-73
2022/11/08 03:51:14;;;;;;;;;;;;;;;4.56;99.30;96361.13;5065329;28;19953;-74
2022/11/08 03:53:40;;;;;;;;;;;;;;;4.54;99.59;96353.50;5071156;28;20375;-74
2022/11/08 03:56:06;;;;;;;;;;;;;;;4.53;100.00;96344.09;5071366;28;19996;-74
2022/11/08 03:58:32;;;;;;;;;;;;;;;4.51;99.59;96343.47;5066973;28;19953;-74
2022/11/08 04:01:01;;;;;;;;;;;;;;;4.47;99.56;96343.06;5069260;28;19948;-74
2022/11/08 04:03:27;;;;;;;;;;;;;;;4.47;99.36;96334.44;5047717;28;20416;-74
2022/11/08 04:05:54;;;;;;;;;;;;;;;4.46;99.41;96338.81;5032433;28;20028;-75
2022/11/08 04:08:20;;;;;;;;;;;;;;;4.45;99.44;96346.78;5066363;28;19985;-74
2022/11/08 04:10:46;;;;;;;;;;;;;;;4.45;99.32;96344.19;5061725;28;20075;-74
2022/11/08 04:15:57;;;;;;;;;;;;;;;4.43;99.88;96346.16;5067591;28;19961;-74
2022/11/08 04:21:20;;;;;;;;;;;;;;;4.40;99.93;96339.56;5066751;28;20319;-74
2022/11/08 04:23:47;;;;;;;;;;;;;;;4.40;99.78;96330.97;5048489;28;19960;-74
2022/11/08 04:26:14;;;;;;;;;;;;;;;4.39;99.85;96331.94;5061582;28;19963;-74
2022/11/08 04:28:40;;;;;;;;;;;;;;;4.38;99.90;96328.53;5074217;28;20311;-74
2022/11/08 04:31:11;;;;;;;;;;;;;;;4.38;99.95;96330.34;5061421;28;19965;-73
2022/11/08 04:33:37;;;;;;;;;;;;;;;4.37;99.70;96326.16;5063887;28;19953;-74
2022/11/08 04:36:04;;;;;;;;;;;;;;;4.35;99.78;96326.31;5065462;28;20012;-74
2022/11/08 04:38:31;;;;;;;;;;;;;;;4.33;99.46;96330.88;5072493;28;20314;-75
2022/11/08 04:40:58;;;;;;;;;;;;;;;4.30;99.74;96331.22;5064292;28;20319;-74
2022/11/08 04:43:24;;;;;;;;;;;;;;;4.28;100.00;96330.59;5059558;28;19950;-74
2022/11/08 04:45:50;;;;;;;;;;;;;;;4.23;100.00;96323.38;5061029;28;20384;-74
2022/11/08 04:48:16;;;;;;;;;;;;;;;4.22;100.00;96321.78;5064773;28;19963;-74
2022/11/08 04:50:42;;;;;;;;;;;;;;;4.20;100.00;96315.97;5067834;28;19956;-74
2022/11/08 04:53:08;;;;;;;;;;;;;;;4.21;100.00;96308.97;5064945;28;19957;-73
2022/11/08 04:55:35;;;;;;;;;;;;;;;4.21;100.00;96301.97;5065663;28;19953;-74
2022/11/08 04:58:01;;;;;;;;;;;;;;;4.20;100.00;96302.97;5059110;28;19958;-74
2022/11/08 05:00:27;;;;;;;;;;;;;;;4.19;100.00;96308.34;5067894;28;20368;-74
2022/11/08 05:02:53;;;;;;;;;;;;;;;4.21;100.00;96301.97;5068140;28;19960;-74
2022/11/08 05:05:19;;;;;;;;;;;;;;;4.26;100.00;96299.66;5064413;28;19978;-73
2022/11/08 05:07:45;;;;;;;;;;;;;;;4.26;100.00;96293.66;5068320;28;19979;-74
2022/11/08 05:10:11;;;;;;;;;;;;;;;4.25;100.00;96292.06;5048158;28;19966;-74
2022/11/08 05:12:37;;;;;;;;;;;;;;;4.18;100.00;96294.56;5066706;28;19954;-74
2022/11/08 05:15:03;;;;;;;;;;;;;;;4.15;100.00;96288.94;5046331;28;19996;-74
2022/11/08 05:17:29;;;;;;;;;;;;;;;4.10;100.00;96289.47;5050667;28;19961;-74
2022/11/08 05:25:24;;;;;;;;;;;;;;;4.01;99.78;96283.59;5063973;28;20363;-74
2022/11/08 05:27:49;;;;;;;;;;;;;;;3.97;99.70;96282.34;5068277;28;19958;-74
2022/11/08 05:30:15;;;;;;;;;;;;;;;3.95;99.65;96283.47;5059165;28;20460;-74
2022/11/08 05:32:41;;;;;;;;;;;;;;;3.92;99.23;96276.06;5064614;28;19959;-74
2022/11/08 05:35:07;;;;;;;;;;;;;;;3.88;99.13;96283.38;5065666;28;19958;-74
2022/11/08 05:37:33;;;;;;;;;;;;;;;3.84;98.98;96285.56;5066351;28;19959;-73
2022/11/08 05:39:59;;;;;;;;;;;;;;;3.83;99.17;96280.53;5060053;28;19954;-74
2022/11/08 05:42:25;;;;;;;;;;;;;;;3.81;99.48;96278.13;5062038;28;19956;-74
2022/11/08 05:44:51;;;;;;;;;;;;;;;3.80;99.19;96281.72;5070473;28;19987;-75
2022/11/08 05:47:17;;;;;;;;;;;;;;;3.77;99.12;96276.06;5037298;28;19954;-74
2022/11/08 05:49:42;;;;;;;;;;;;;;;3.74;99.09;96285.03;5067515;28;20016;-74
2022/11/08 05:52:08;;;;;;;;;;;;;;;3.75;99.23;96280.63;5063031;28;20003;-74
2022/11/08 05:54:34;;;;;;;;;;;;;;;3.74;99.62;96286.78;5065444;28;19949;-74
2022/11/08 05:57:00;;;;;;;;;;;;;;;3.75;99.77;96285.81;5044017;28;19958;-74
2022/11/08 05:59:26;;;;;;;;;;;;;;;3.74;99.67;96282.44;5046015;28;19956;-74
2022/11/08 06:01:52;;;;;;;;;;;;;;;3.76;100.00;96277.88;5063895;28;19953;-74
2022/11/08 06:04:18;;;;;;;;;;;;;;;3.78;100.00;96275.06;5057036;28;20005;-74
2022/11/08 06:06:43;;;;;;;;;;;;;;;3.80;100.00;96281.72;5066844;28;19966;-74
2022/11/08 06:09:09;;;;;;;;;;;;;;;3.84;100.00;96284.72;5068720;28;19987;-74
2022/11/08 06:11:35;;;;;;;;;;;;;;;3.84;100.00;96277.78;5046210;28;19969;-74
2022/11/08 06:14:01;;;;;;;;;;;;;;;3.84;100.00;96275.19;5063259;28;20039;-74
2022/11/08 06:16:27;;;;;;;;;;;;;;;3.84;100.00;96272.59;5070763;28;20397;-74
2022/11/08 06:18:53;;;;;;;;;;;;;;;3.83;100.00;96272.75;5060169;28;19960;-74
2022/11/08 06:21:20;;;;;;;;;;;;;;;3.84;100.00;96272.59;5046665;28;19957;-74
2022/11/08 06:23:46;;;;;;;;;;;;;;;3.85;100.00;96278.56;5069811;28;19959;-74
2022/11/08 06:26:12;;;;;;;;;;;;;;;3.87;100.00;96279.19;5054404;28;20431;-74
2022/11/08 06:28:37;;;;;;;;;;;;;;;3.89;100.00;96276.44;5045987;28;19953;-74
2022/11/08 06:31:04;;;;;;;;;;;;;;;3.93;100.00;96272.50;5070473;28;19964;-74
2022/11/08 06:33:30;;;;;;;;;;;;;;;3.97;100.00;96269.34;5064299;28;19954;-74
2022/11/08 06:35:56;;;;;;;;;;;;;;;4.03;100.00;96271.22;5061154;28;19959;-74
2022/11/08 06:38:22;;;;;;;;;;;;;;;4.09;100.00;96276.69;5072990;28;20393;-74
2022/11/08 06:40:48;;;;;;;;;;;;;;;4.12;100.00;96282.31;5039635;28;19998;-74
2022/11/08 06:43:14;;;;;;;;;;;;;;;4.20;100.00;96284.81;5073766;28;20004;-74
2022/11/08 06:45:40;;;;;;;;;;;;;;;4.26;100.00;96288.44;5061402;28;19968;-75
2022/11/08 06:48:06;;;;;;;;;;;;;;;4.32;100.00;96289.53;5059897;28;19971;-74
2022/11/08 06:50:33;;;;;;;;;;;;;;;4.35;100.00;96291.78;5069036;28;19951;-74
2022/11/08 06:53:00;;;;;;;;;;;;;;;4.39;100.00;96299.00;5063996;28;19958;-73
2022/11/08 06:55:26;;;;;;;;;;;;;;;4.43;100.00;96302.84;5063917;28;20397;-74
2022/11/08 06:57:52;;;;;;;;;;;;;;;4.46;100.00;96292.09;5058483;28;19960;-74
2022/11/08 07:00:18;;;;;;;;;;;;;;;4.53;100.00;96297.34;5062636;28;19990;-74
2022/11/08 07:02:45;;;;;;;;;;;;;;;4.63;100.00;96292.66;5068377;28;19960;-74
2022/11/08 07:05:11;;;;;;;;;;;;;;;4.74;100.00;96293.19;5064389;28;19968;-74
2022/11/08 07:07:37;;;;;;;;;;;;;;;4.78;100.00;96291.81;5041783;28;20433;-74
2022/11/08 07:10:04;;;;;;;;;;;;;;;4.82;100.00;96293.84;5064253;28;19990;-74
2022/11/08 07:12:30;;;;;;;;;;;;;;;4.85;100.00;96292.69;5065881;28;19974;-74
2022/11/08 07:14:56;;;;;;;;;;;;;;;4.87;100.00;96294.13;5065851;28;19953;-74
2022/11/08 07:17:22;;;;;;;;;;;;;;;4.91;100.00;96286.75;5061875;28;20005;-74
2022/11/08 07:19:48;;;;;;;;;;;;;;;4.99;100.00;96284.00;5056422;28;19962;-74
2022/11/08 07:22:14;;;;;;;;;;;;;;;5.09;100.00;96271.50;5064364;28;19956;-74
2022/11/08 07:24:40;;;;;;;;;;;;;;;5.15;100.00;96267.38;5068687;28;19951;-74
2022/11/08 07:27:05;;;;;;;;;;;;;;;5.26;100.00;96258.25;5060191;28;20074;-74
2022/11/08 07:29:31;;;;;;;;;;;;;;;5.46;100.00;96259.19;5062873;28;19976;-74
2022/11/08 07:31:57;;;;;;;;;;;;;;;5.67;100.00;96240.13;5062997;28;20008;-73
2022/11/08 07:34:23;;;;;;;;;;;;;;;5.75;100.00;96220.94;5063459;28;20000;-74
2022/11/08 07:36:49;;;;;;;;;;;;;;;5.80;100.00;96234.19;5065111;28;20425;-74
2022/11/08 07:39:15;;;;;;;;;;;;;;;5.96;100.00;96229.66;5063862;28;19997;-74
2022/11/08 07:41:41;;;;;;;;;;;;;;;6.20;100.00;96234.38;5056702;28;19959;-74
2022/11/08 07:44:06;;;;;;;;;;;;;;;6.40;100.00;96250.06;5065558;28;20027;-74
2022/11/08 07:46:32;;;;;;;;;;;;;;;6.48;100.00;96273.31;5056788;28;20033;-74
2022/11/08 07:48:58;;;;;;;;;;;;;;;6.61;100.00;96271.75;5055752;28;19957;-74
2022/11/08 07:51:24;;;;;;;;;;;;;;;6.75;100.00;96273.38;5067025;28;20003;-74
2022/11/08 07:53:50;;;;;;;;;;;;;;;6.81;99.49;96282.22;5062522;28;20478;-74
2022/11/08 07:56:16;;;;;;;;;;;;;;;6.84;98.66;96277.41;5063785;28;20380;-74
2022/11/08 07:58:41;;;;;;;;;;;;;;;6.93;97.17;96278.03;5059841;28;20360;-75
2022/11/08 08:01:07;;;;;;;;;;;;;;;7.07;95.86;96274.44;5062864;28;19996;-74
2022/11/08 08:03:33;;;;;;;;;;;;;;;7.24;95.86;96289.69;5064002;28;19954;-74
2022/11/08 08:05:59;;;;;;;;;;;;;;;7.35;94.80;96283.88;5067024;28;19974;-75
2022/11/08 08:08:25;;;;;;;;;;;;;;;7.42;95.39;96282.06;5056724;28;20028;-74
2022/11/08 08:10:54;;;;;;;;;;;;;;;7.42;92.08;96250.75;5063466;28;20330;-73
2022/11/08 08:13:20;;;;;;;;;;;;;;;7.46;94.77;96261.59;5063948;28;20334;-74
2022/11/08 08:15:46;;;;;;;;;;;;;;;7.51;95.10;96267.00;5066051;28;19988;-74
2022/11/08 08:18:12;;;;;;;;;;;;;;;7.71;95.65;96265.16;5062937;28;20073;-74
2022/11/08 08:20:38;;;;;;;;;;;;;;;7.98;95.54;96265.13;5063355;28;19959;-75
2022/11/08 08:23:05;;;;;;;;;;;;;;;8.06;95.18;96267.50;5063941;28;19995;-74
2022/11/08 08:25:31;;;;;;;;;;;;;;;8.06;95.49;96264.91;5040809;28;19986;-75
2022/11/08 08:27:59;;;;;;;;;;;;;;;7.98;95.53;96259.91;5047947;28;19950;-75
2022/11/08 08:30:25;;;;;;;;;;;;;;;8.01;96.43;96266.50;5064976;28;19972;-74
2022/11/08 08:32:59;;;;;;;;;;;;;;;8.08;98.09;96275.09;5066580;28;19964;-74
2022/11/08 08:35:25;;;;;;;;;;;;;;;8.17;98.16;96268.66;5063401;28;19956;-74
2022/11/08 08:37:51;;;;;;;;;;;;;;;8.26;98.18;96267.41;5065306;28;20005;-74
2022/11/08 08:40:17;;;;;;;;;;;;;;;8.40;96.19;96259.50;5075779;28;19958;-75
2022/11/08 08:42:42;;;;;;;;;;;;;;;8.48;96.79;96269.75;5060887;28;19955;-76
2022/11/08 08:45:09;;;;;;;;;;;;;;;8.47;94.74;96252.50;5071474;28;19982;-74
2022/11/08 08:47:35;;;;;;;;;;;;;;;8.47;95.59;96261.13;5067774;28;20344;-74
2022/11/08 08:50:01;;;;;;;;;;;;;;;8.47;95.36;96268.16;5068037;28;19995;-74
2022/11/08 08:52:27;;;;;;;;;;;;;;;8.49;96.49;96281.81;5061453;28;20302;-74
2022/11/08 08:54:53;;;;;;;;;;;;;;;8.53;96.43;96286.41;5048713;28;20426;-74
2022/11/08 08:57:18;;;;;;;;;;;;;;;8.55;95.70;96278.38;5066797;28;20372;-74
2022/11/08 08:59:44;;;;;;;;;;;;;;;8.59;95.33;96278.75;5064509;28;19957;-74
2022/11/08 09:02:10;;;;;;;;;;;;;;;8.61;95.08;96276.72;5068477;28;20004;-74
2022/11/08 09:04:37;;;;;;;;;;;;;;;8.67;95.25;96275.88;5065678;28;19953;-74
2022/11/08 09:07:03;;;;;;;;;;;;;;;8.69;92.69;96266.84;5065800;28;20445;-74
2022/11/08 09:09:29;;;;;;;;;;;;;;;8.70;92.55;96275.50;5066205;28;20066;-75
2022/11/08 09:11:55;;;;;;;;;;;;;;;8.72;92.61;96268.22;5062379;28;19965;-74
2022/11/08 09:14:21;;;;;;;;;;;;;;;8.73;93.01;96275.06;5068198;28;19958;-74
2022/11/08 09:16:47;;;;;;;;;;;;;;;8.74;94.09;96277.47;5067870;28;20003;-74
2022/11/08 09:19:13;;;;;;;;;;;;;;;8.78;94.02;96277.03;5067091;28;20008;-74
2022/11/08 09:21:38;;;;;;;;;;;;;;;8.82;94.89;96288.69;5064554;28;20003;-74
2022/11/08 09:24:04;;;;;;;;;;;;;;;8.87;94.23;96288.88;5064205;28;20007;-74
2022/11/08 09:26:30;;;;;;;;;;;;;;;8.88;93.79;96274.75;5061076;28;20305;-74
2022/11/08 09:28:56;;;;;;;;;;;;;;;8.90;93.30;96281.41;5073248;28;20009;-74
2022/11/08 09:31:22;;;;;;;;;;;;;;;8.94;93.86;96276.53;5060682;28;20032;-74
2022/11/08 09:33:49;;;;;;;;;;;;;;;9.07;95.30;96284.31;5050814;28;19958;-74
2022/11/08 09:36:15;;;;;;;;;;;;;;;9.24;93.20;96275.91;5063739;28;20294;-74
2022/11/08 09:38:40;;;;;;;;;;;;;;;9.37;92.39;96267.19;5062693;28;19953;-74
2022/11/08 09:41:25;;;;;;;;;;;;;;;9.46;92.94;96277.16;5073478;28;20036;-74
2022/11/08 09:44:09;;;;;;;;;;;;;;;9.51;91.15;96274.72;5057543;28;19955;-74
2022/11/08 09:46:42;;;;;;;;;;;;;;;9.58;91.40;96276.47;5061049;28;19974;-74
2022/11/08 09:49:14;;;;;;;;;;;;;;;9.65;92.29;96279.81;5066977;28;20352;-74
2022/11/08 09:51:40;;;;;;;;;;;;;;;9.79;90.74;96268.19;5068505;28;19946;-75
2022/11/08 09:54:12;;;;;;;;;;;;;;;9.93;88.35;96251.34;5045036;28;19964;-74
2022/11/08 09:56:39;;;;;;;;;;;;;;;10.01;90.65;96265.16;5060962;28;19950;-74
2022/11/08 09:59:13;;;;;;;;;;;;;;;10.06;90.95;96268.72;5061918;28;19966;-77
2022/11/08 10:01:39;;;;;;;;;;;;;;;10.12;90.56;96261.78;5043073;28;20354;-75
2022/11/08 10:04:07;;;;;;;;;;;;;;;10.19;90.24;96251.25;5061688;28;19953;-74
2022/11/08 10:06:41;;;;;;;;;;;;;;;10.19;89.82;96254.66;5065684;28;19969;-74
2022/11/08 10:09:19;;;;;;;;;;;;;;;10.21;89.31;96257.88;5071390;28;19978;-74
2022/11/08 10:11:53;;;;;;;;;;;;;;;10.23;89.22;96245.34;5061877;28;19976;-74
2022/11/08 10:14:42;;;;;;;;;;;;;;;10.24;90.40;96260.03;5062035;28;19951;-74
2022/11/08 10:17:17;;;;;;;;;;;;;;;10.30;90.50;96267.06;5056434;28;19960;-74
2022/11/08 10:19:43;;;;;;;;;;;;;;;10.31;89.64;96259.97;5057383;28;19954;-74
2022/11/08 10:22:38;;;;;;;;;;;;;;;10.34;90.19;96264.81;5068482;28;19993;-74
2022/11/08 10:25:17;;;;;;;;;;;;;;;10.39;88.42;96249.19;5045020;28;19958;-74
2022/11/08 10:27:42;;;;;;;;;;;;;;;10.41;88.56;96244.53;5061245;28;19967;-74
2022/11/08 10:30:16;;;;;;;;;;;;;;;10.49;89.19;96246.84;5063594;28;19968;-74
2022/11/08 10:32:42;;;;;;;;;;;;;;;10.58;86.92;96226.34;5064650;28;19954;-75
2022/11/08 10:35:11;;;;;;;;;;;;;;;10.70;87.48;96229.81;5057476;28;19950;-74
2022/11/08 10:37:39;;;;;;;;;;;;;;;10.90;89.10;96244.50;5061422;28;19952;-74
2022/11/08 10:40:23;;;;;;;;;;;;;;;11.17;86.44;96219.44;5053774;28;20412;-74
2022/11/08 10:42:53;;;;;;;;;;;;;;;11.57;87.80;96237.16;5069451;28;19957;-74
2022/11/08 10:45:19;;;;;;;;;;;;;;;11.88;83.00;96203.66;5045963;28;19955;-75
2022/11/08 10:47:46;;;;;;;;;;;;;;;12.05;81.66;96185.34;5043300;28;20041;-74
2022/11/08 10:50:12;;;;;;;;;;;;;;;12.29;83.66;96199.22;5046376;28;19962;-74
2022/11/08 10:52:56;;;;;;;;;;;;;;;12.51;81.05;96164.34;5054978;28;19960;-74
2022/11/08 10:55:35;;;;;;;;;;;;;;;12.79;81.28;96177.47;5059044;28;19966;-74
2022/11/08 10:58:01;;;;;;;;;;;;;;;13.08;79.96;96169.50;5055615;28;19959;-74
2022/11/08 11:00:29;;;;;;;;;;;;;;;13.31;76.54;96136.13;5056821;28;19953;-74
2022/11/08 11:03:00;;;;;;;;;;;;;;;13.44;77.01;96145.53;5042939;28;20459;-74
2022/11/08 11:05:28;;;;;;;;;;;;;;;13.48;76.99;96139.56;5069467;28;19950;-73
2022/11/08 11:08:03;;;;;;;;;;;;;;;13.50;75.85;96126.13;5035543;28;19975;-74
2022/11/08 11:10:39;;;;;;;;;;;;;;;13.52;74.31;96121.41;5029860;28;20340;-74
2022/11/08 11:13:25;;;;;;;;;;;;;;;13.68;74.65;96130.31;5046011;28;19953;-74
2022/11/08 11:15:57;;;;;;;;;;;;;;;13.85;73.66;96117.06;5037421;28;20347;-74
2022/11/08 11:18:28;;;;;;;;;;;;;;;13.94;72.47;96110.31;5073369;28;20431;-74
2022/11/08 11:20:59;;;;;;;;;;;;;;;14.02;73.65;96123.84;5045710;28;19950;-74
2022/11/08 11:23:32;;;;;;;;;;;;;;;14.08;68.79;96094.91;5038304;28;19955;-74
2022/11/08 11:25:58;;;;;;;;;;;;;;;14.14;70.51;96152.72;5046497;28;19947;-73
2022/11/08 11:28:24;;;;;;;;;;;;;;;14.14;70.56;96157.19;5042681;28;19950;-73
2022/11/08 11:31:00;;;;;;;;;;;;;;;14.17;68.77;96152.22;5054671;28;19957;-73
2022/11/08 11:33:28;;;;;;;;;;;;;;;14.18;72.99;96177.56;5068656;28;19954;-73
2022/11/08 11:35:56;;;;;;;;;;;;;;;14.28;74.18;96181.34;5056065;28;20017;-73
2022/11/08 11:38:37;;;;;;;;;;;;;;;14.42;71.34;96161.44;5073655;28;19954;-73
2022/11/08 11:41:10;;;;;;;;;;;;;;;14.58;71.55;96165.06;5074422;28;19951;-73
2022/11/08 11:44:13;;;;;;;;;;;;;;;14.65;65.88;96133.97;5074177;28;19954;-72
2022/11/08 11:46:50;;;;;;;;;;;;;;;14.72;71.02;96162.78;5049796;28;19968;-73
2022/11/08 11:49:18;;;;;;;;;;;;;;;14.84;68.58;96138.88;5045123;28;19972;-73
2022/11/08 11:51:44;;;;;;;;;;;;;;;14.94;68.63;96138.97;5041772;28;19948;-73
2022/11/08 11:54:12;;;;;;;;;;;;;;;15.01;67.89;96145.63;5038174;28;20005;-73
2022/11/08 11:56:53;;;;;;;;;;;;;;;15.07;66.16;96133.22;5062172;28;19949;-73
2022/11/08 11:59:28;;;;;;;;;;;;;;;15.08;69.06;96160.47;5069875;28;19946;-73
2022/11/08 12:02:05;;;;;;;;;;;;;;;15.03;66.44;96142.72;5053210;28;19951;-73
2022/11/08 12:04:42;;;;;;;;;;;;;;;14.96;71.10;96156.13;5055302;28;19964;-74
2022/11/08 12:07:22;;;;;;;;;;;;;;;15.00;70.99;96165.16;5050448;28;20416;-74
2022/11/08 12:10:03;;;;;;;;;;;;;;;15.14;65.98;96140.94;5072971;28;20423;-74
2022/11/08 12:12:53;;;;;;;;;;;;;;;15.30;63.53;96123.34;5047358;28;20408;-74
2022/11/08 12:15:26;;;;;;;;;;;;;;;15.41;63.42;96124.97;5056857;28;20425;-74
2022/11/08 12:18:06;;;;;;;;;;;;;;;15.56;63.80;96127.72;5039142;28;20286;-74
2022/11/08 12:20:53;;;;;;;;;;;;;;;15.70;65.06;96133.31;5039752;28;20308;-74
2022/11/08 12:23:27;;;;;;;;;;;;;;;15.83;63.01;96137.38;5048113;28;19950;-74
2022/11/08 12:25:53;;;;;;;;;;;;;;;15.84;63.20;96141.63;5051537;28;19952;-74
2022/11/08 12:28:34;;;;;;;;;;;;;;;15.77;62.56;96138.41;5041443;28;19963;-74
2022/11/08 12:31:00;;;;;;;;;;;;;;;15.71;61.68;96134.91;5040330;28;19955;-74
2022/11/08 12:33:26;;;;;;;;;;;;;;;15.71;62.11;96132.28;5039331;28;19952;-74
2022/11/08 12:35:58;;;;;;;;;;;;;;;15.74;61.62;96133.63;5056681;28;20018;-74
2022/11/08 12:38:30;;;;;;;;;;;;;;;15.81;60.70;96126.25;5049095;28;20356;-76
2022/11/08 12:40:59;;;;;;;;;;;;;;;15.89;59.68;96120.47;5034626;28;19956;-74
2022/11/08 12:43:31;;;;;;;;;;;;;;;15.85;63.90;96137.91;5039352;28;19954;-74
2022/11/08 12:45:57;;;;;;;;;;;;;;;15.82;60.07;96122.56;5076008;28;19947;-73
2022/11/08 12:48:26;;;;;;;;;;;;;;;15.78;62.37;96126.78;5048389;28;19970;-74
2022/11/08 12:50:51;;;;;;;;;;;;;;;15.72;59.42;96112.75;5061518;28;19947;-74
2022/11/08 12:53:26;;;;;;;;;;;;;;;15.69;61.40;96120.38;5052021;28;19988;-74
2022/11/08 12:55:55;;;;;;;;;;;;;;;15.67;62.82;96130.41;5056462;28;20421;-74
2022/11/08 12:58:27;;;;;;;;;;;;;;;15.64;59.45;96115.84;5074868;28;20319;-74
2022/11/08 13:00:55;;;;;;;;;;;;;;;15.70;60.43;96124.59;5049592;28;19956;-75
2022/11/08 13:03:41;;;;;;;;;;;;;;;15.71;62.28;96120.91;5056239;28;19958;-74
2022/11/08 13:06:11;;;;;;;;;;;;;;;15.68;60.83;96116.13;5009644;28;19960;-74
2022/11/08 13:08:48;;;;;;;;;;;;;;;15.61;60.25;96117.16;5025405;28;20029;-74
2022/11/08 13:11:20;;;;;;;;;;;;;;;15.47;60.27;96112.59;5038605;28;19952;-74
2022/11/08 13:14:04;;;;;;;;;;;;;;;15.38;61.90;96118.38;5016404;28;19942;-74
2022/11/08 13:16:38;;;;;;;;;;;;;;;15.28;60.54;96123.59;5075467;28;20413;-74
2022/11/08 13:19:04;;;;;;;;;;;;;;;15.20;64.46;96132.81;5041566;28;19950;-74
2022/11/08 13:21:37;;;;;;;;;;;;;;;15.24;69.29;96138.34;5067032;28;19950;-74